sensor_id;sensor_type;location;lat;lon;timestamp;P1;durP1;ratioP1;P2;durP2;ratioP2
70183;SDS011;57554;51.546;6.776;2023-06-22T00:00:50;12.15;;;6.93;;
70183;SDS011;57554;51.546;6.776;2023-06-22T00:03:20;13.75;;;6.82;;
70183;SDS011;57554;51.546;6.776;2023-06-22T00:05:46;12.57;;;6.38;;
70183;SDS011;57554;51.546;6.776;2023-06-22T00:08:15;12.55;;;7.68;;
70183;SDS011;57554;51.546;6.776;2023-06-22T00:10:42;12.70;;;7.70;;
70183;SDS011;57554;51.546;6.776;2023-06-22T00:13:08;12.88;;;7.22;;
70183;SDS011;57554;51.546;6.776;2023-06-22T00:15:35;12.98;;;7.57;;
70183;SDS011;57554;51.546;6.776;2023-06-22T00:18:01;11.75;;;6.97;;
70183;SDS011;57554;51.546;6.776;2023-06-22T00:20:27;11.45;;;7.10;;
70183;SDS011;57554;51.546;6.776;2023-06-22T00:22:54;19.85;;;8.43;;
70183;SDS011;57554;51.546;6.776;2023-06-22T00:25:20;11.00;;;7.03;;
70183;SDS011;57554;51.546;6.776;2023-06-22T00:27:46;11.60;;;7.53;;
70183;SDS011;57554;51.546;6.776;2023-06-22T00:30:12;12.02;;;7.25;;
70183;SDS011;57554;51.546;6.776;2023-06-22T00:32:38;12.45;;;7.70;;
70183;SDS011;57554;51.546;6.776;2023-06-22T00:35:04;13.50;;;7.20;;
70183;SDS011;57554;51.546;6.776;2023-06-22T00:37:30;11.52;;;7.10;;
70183;SDS011;57554;51.546;6.776;2023-06-22T00:39:56;11.23;;;7.13;;
70183;SDS011;57554;51.546;6.776;2023-06-22T00:42:22;12.85;;;6.68;;
70183;SDS011;57554;51.546;6.776;2023-06-22T00:44:47;12.70;;;7.30;;
70183;SDS011;57554;51.546;6.776;2023-06-22T00:47:13;12.45;;;6.72;;
70183;SDS011;57554;51.546;6.776;2023-06-22T00:49:42;10.95;;;7.38;;
70183;SDS011;57554;51.546;6.776;2023-06-22T00:52:08;12.45;;;7.07;;
70183;SDS011;57554;51.546;6.776;2023-06-22T00:54:42;13.57;;;7.55;;
70183;SDS011;57554;51.546;6.776;2023-06-22T00:57:14;14.07;;;6.68;;
70183;SDS011;57554;51.546;6.776;2023-06-22T00:59:44;11.77;;;7.22;;
70183;SDS011;57554;51.546;6.776;2023-06-22T01:02:11;11.88;;;7.10;;
70183;SDS011;57554;51.546;6.776;2023-06-22T01:04:38;14.52;;;8.20;;
70183;SDS011;57554;51.546;6.776;2023-06-22T01:07:20;14.90;;;8.68;;
70183;SDS011;57554;51.546;6.776;2023-06-22T01:12:59;11.43;;;7.95;;
70183;SDS011;57554;51.546;6.776;2023-06-22T01:15:44;12.40;;;7.43;;
70183;SDS011;57554;51.546;6.776;2023-06-22T01:18:14;12.88;;;7.30;;
70183;SDS011;57554;51.546;6.776;2023-06-22T01:20:43;13.30;;;7.53;;
70183;SDS011;57554;51.546;6.776;2023-06-22T01:25:47;11.63;;;7.10;;
70183;SDS011;57554;51.546;6.776;2023-06-22T01:28:46;14.65;;;8.75;;
70183;SDS011;57554;51.546;6.776;2023-06-22T01:31:15;15.32;;;8.07;;
70183;SDS011;57554;51.546;6.776;2023-06-22T01:33:43;14.80;;;7.68;;
70183;SDS011;57554;51.546;6.776;2023-06-22T01:36:13;12.15;;;7.97;;
70183;SDS011;57554;51.546;6.776;2023-06-22T01:38:41;13.90;;;7.20;;
70183;SDS011;57554;51.546;6.776;2023-06-22T01:41:08;11.88;;;8.27;;
70183;SDS011;57554;51.546;6.776;2023-06-22T01:43:34;12.88;;;7.32;;
70183;SDS011;57554;51.546;6.776;2023-06-22T01:46:01;13.52;;;8.27;;
70183;SDS011;57554;51.546;6.776;2023-06-22T01:48:27;13.75;;;7.85;;
70183;SDS011;57554;51.546;6.776;2023-06-22T01:50:54;13.02;;;8.85;;
70183;SDS011;57554;51.546;6.776;2023-06-22T01:53:21;11.80;;;8.10;;
70183;SDS011;57554;51.546;6.776;2023-06-22T01:55:47;14.32;;;8.95;;
70183;SDS011;57554;51.546;6.776;2023-06-22T01:58:13;16.10;;;9.50;;
70183;SDS011;57554;51.546;6.776;2023-06-22T02:00:39;14.35;;;8.32;;
70183;SDS011;57554;51.546;6.776;2023-06-22T02:03:10;16.55;;;8.88;;
70183;SDS011;57554;51.546;6.776;2023-06-22T02:08:25;15.82;;;10.30;;
70183;SDS011;57554;51.546;6.776;2023-06-22T02:10:55;16.48;;;8.75;;
70183;SDS011;57554;51.546;6.776;2023-06-22T02:13:23;16.75;;;8.88;;
70183;SDS011;57554;51.546;6.776;2023-06-22T02:15:49;15.27;;;9.48;;
70183;SDS011;57554;51.546;6.776;2023-06-22T02:18:15;13.52;;;9.20;;
70183;SDS011;57554;51.546;6.776;2023-06-22T02:20:41;14.65;;;9.05;;
70183;SDS011;57554;51.546;6.776;2023-06-22T02:23:07;14.20;;;8.77;;
70183;SDS011;57554;51.546;6.776;2023-06-22T02:25:33;15.20;;;9.73;;
70183;SDS011;57554;51.546;6.776;2023-06-22T02:27:59;12.05;;;8.57;;
70183;SDS011;57554;51.546;6.776;2023-06-22T02:30:25;15.95;;;10.77;;
70183;SDS011;57554;51.546;6.776;2023-06-22T02:32:51;14.25;;;9.43;;
70183;SDS011;57554;51.546;6.776;2023-06-22T02:35:23;15.35;;;10.63;;
70183;SDS011;57554;51.546;6.776;2023-06-22T02:37:56;17.13;;;10.88;;
70183;SDS011;57554;51.546;6.776;2023-06-22T02:40:25;17.98;;;11.73;;
70183;SDS011;57554;51.546;6.776;2023-06-22T02:42:51;18.08;;;10.75;;
70183;SDS011;57554;51.546;6.776;2023-06-22T02:45:17;17.38;;;11.80;;
70183;SDS011;57554;51.546;6.776;2023-06-22T02:47:44;19.88;;;11.30;;
70183;SDS011;57554;51.546;6.776;2023-06-22T02:50:10;14.52;;;9.95;;
70183;SDS011;57554;51.546;6.776;2023-06-22T02:52:35;17.42;;;11.32;;
70183;SDS011;57554;51.546;6.776;2023-06-22T02:55:01;17.90;;;12.20;;
70183;SDS011;57554;51.546;6.776;2023-06-22T02:57:27;17.48;;;11.48;;
70183;SDS011;57554;51.546;6.776;2023-06-22T02:59:52;17.00;;;11.05;;
70183;SDS011;57554;51.546;6.776;2023-06-22T03:02:18;16.42;;;12.38;;
70183;SDS011;57554;51.546;6.776;2023-06-22T03:04:46;18.98;;;11.80;;
70183;SDS011;57554;51.546;6.776;2023-06-22T03:07:14;17.08;;;10.75;;
70183;SDS011;57554;51.546;6.776;2023-06-22T03:09:40;18.30;;;12.07;;
70183;SDS011;57554;51.546;6.776;2023-06-22T03:12:07;16.48;;;12.05;;
70183;SDS011;57554;51.546;6.776;2023-06-22T03:14:33;20.08;;;13.02;;
70183;SDS011;57554;51.546;6.776;2023-06-22T03:16:58;18.10;;;13.23;;
70183;SDS011;57554;51.546;6.776;2023-06-22T03:19:28;13.75;;;9.73;;
70183;SDS011;57554;51.546;6.776;2023-06-22T03:21:54;18.23;;;12.15;;
70183;SDS011;57554;51.546;6.776;2023-06-22T03:24:20;17.63;;;11.40;;
70183;SDS011;57554;51.546;6.776;2023-06-22T03:26:45;17.25;;;11.88;;
70183;SDS011;57554;51.546;6.776;2023-06-22T03:29:11;19.17;;;11.10;;
70183;SDS011;57554;51.546;6.776;2023-06-22T03:31:37;17.80;;;11.43;;
70183;SDS011;57554;51.546;6.776;2023-06-22T03:34:03;18.25;;;12.30;;
70183;SDS011;57554;51.546;6.776;2023-06-22T03:36:28;19.98;;;11.98;;
70183;SDS011;57554;51.546;6.776;2023-06-22T03:38:54;20.15;;;12.02;;
70183;SDS011;57554;51.546;6.776;2023-06-22T03:41:20;20.50;;;13.05;;
70183;SDS011;57554;51.546;6.776;2023-06-22T03:43:45;20.15;;;13.38;;
70183;SDS011;57554;51.546;6.776;2023-06-22T03:46:11;22.60;;;11.95;;
70183;SDS011;57554;51.546;6.776;2023-06-22T03:48:37;19.88;;;12.85;;
70183;SDS011;57554;51.546;6.776;2023-06-22T03:51:03;19.90;;;13.52;;
70183;SDS011;57554;51.546;6.776;2023-06-22T03:53:29;16.92;;;12.18;;
70183;SDS011;57554;51.546;6.776;2023-06-22T03:55:54;21.67;;;13.88;;
70183;SDS011;57554;51.546;6.776;2023-06-22T03:58:21;24.33;;;15.00;;
70183;SDS011;57554;51.546;6.776;2023-06-22T04:00:47;19.20;;;14.05;;
70183;SDS011;57554;51.546;6.776;2023-06-22T04:03:16;20.20;;;14.70;;
70183;SDS011;57554;51.546;6.776;2023-06-22T04:05:45;21.35;;;14.77;;
70183;SDS011;57554;51.546;6.776;2023-06-22T04:08:14;21.38;;;14.45;;
70183;SDS011;57554;51.546;6.776;2023-06-22T04:10:40;20.73;;;14.73;;
70183;SDS011;57554;51.546;6.776;2023-06-22T04:13:06;21.85;;;14.23;;
70183;SDS011;57554;51.546;6.776;2023-06-22T04:15:32;20.55;;;14.88;;
70183;SDS011;57554;51.546;6.776;2023-06-22T04:17:57;25.55;;;15.75;;
70183;SDS011;57554;51.546;6.776;2023-06-22T04:20:23;21.15;;;15.80;;
70183;SDS011;57554;51.546;6.776;2023-06-22T04:22:54;19.95;;;14.73;;
70183;SDS011;57554;51.546;6.776;2023-06-22T04:25:20;20.38;;;15.02;;
70183;SDS011;57554;51.546;6.776;2023-06-22T04:27:46;24.67;;;16.17;;
70183;SDS011;57554;51.546;6.776;2023-06-22T04:30:12;22.23;;;15.88;;
70183;SDS011;57554;51.546;6.776;2023-06-22T04:32:40;23.48;;;15.55;;
70183;SDS011;57554;51.546;6.776;2023-06-22T04:35:06;21.92;;;15.32;;
70183;SDS011;57554;51.546;6.776;2023-06-22T04:37:32;23.73;;;17.17;;
70183;SDS011;57554;51.546;6.776;2023-06-22T04:39:58;22.92;;;15.10;;
70183;SDS011;57554;51.546;6.776;2023-06-22T04:42:27;21.83;;;14.68;;
70183;SDS011;57554;51.546;6.776;2023-06-22T04:44:52;24.63;;;16.92;;
70183;SDS011;57554;51.546;6.776;2023-06-22T04:47:18;20.65;;;13.55;;
70183;SDS011;57554;51.546;6.776;2023-06-22T04:49:44;21.98;;;15.07;;
70183;SDS011;57554;51.546;6.776;2023-06-22T04:52:11;21.85;;;16.10;;
70183;SDS011;57554;51.546;6.776;2023-06-22T04:54:38;19.13;;;13.85;;
70183;SDS011;57554;51.546;6.776;2023-06-22T04:57:13;20.98;;;14.93;;
70183;SDS011;57554;51.546;6.776;2023-06-22T04:59:40;24.40;;;16.55;;
70183;SDS011;57554;51.546;6.776;2023-06-22T05:02:07;22.00;;;15.15;;
70183;SDS011;57554;51.546;6.776;2023-06-22T05:04:33;21.10;;;14.15;;
70183;SDS011;57554;51.546;6.776;2023-06-22T05:07:00;23.15;;;15.68;;
70183;SDS011;57554;51.546;6.776;2023-06-22T05:09:27;22.73;;;14.98;;
70183;SDS011;57554;51.546;6.776;2023-06-22T05:11:53;22.65;;;14.23;;
70183;SDS011;57554;51.546;6.776;2023-06-22T05:14:19;20.15;;;15.15;;
70183;SDS011;57554;51.546;6.776;2023-06-22T05:16:45;22.38;;;14.63;;
70183;SDS011;57554;51.546;6.776;2023-06-22T05:19:11;24.58;;;15.73;;
70183;SDS011;57554;51.546;6.776;2023-06-22T05:21:37;21.77;;;15.15;;
70183;SDS011;57554;51.546;6.776;2023-06-22T05:24:03;22.77;;;15.98;;
70183;SDS011;57554;51.546;6.776;2023-06-22T05:26:29;21.88;;;16.08;;
70183;SDS011;57554;51.546;6.776;2023-06-22T05:28:56;19.92;;;14.30;;
70183;SDS011;57554;51.546;6.776;2023-06-22T05:31:22;18.38;;;13.65;;
70183;SDS011;57554;51.546;6.776;2023-06-22T05:33:49;19.75;;;14.23;;
70183;SDS011;57554;51.546;6.776;2023-06-22T05:36:16;22.17;;;15.38;;
70183;SDS011;57554;51.546;6.776;2023-06-22T05:38:42;24.17;;;15.30;;
70183;SDS011;57554;51.546;6.776;2023-06-22T05:41:08;18.10;;;12.95;;
70183;SDS011;57554;51.546;6.776;2023-06-22T05:43:33;19.33;;;13.38;;
70183;SDS011;57554;51.546;6.776;2023-06-22T05:46:00;23.63;;;14.80;;
70183;SDS011;57554;51.546;6.776;2023-06-22T05:48:26;19.35;;;12.32;;
70183;SDS011;57554;51.546;6.776;2023-06-22T05:50:52;18.75;;;13.20;;
70183;SDS011;57554;51.546;6.776;2023-06-22T05:53:18;22.55;;;15.68;;
70183;SDS011;57554;51.546;6.776;2023-06-22T05:55:44;19.38;;;13.90;;
70183;SDS011;57554;51.546;6.776;2023-06-22T05:58:10;21.77;;;16.67;;
70183;SDS011;57554;51.546;6.776;2023-06-22T06:00:35;24.77;;;15.15;;
70183;SDS011;57554;51.546;6.776;2023-06-22T06:03:01;25.98;;;17.17;;
70183;SDS011;57554;51.546;6.776;2023-06-22T06:05:30;22.15;;;15.95;;
70183;SDS011;57554;51.546;6.776;2023-06-22T06:07:56;21.52;;;14.27;;
70183;SDS011;57554;51.546;6.776;2023-06-22T06:10:22;23.67;;;16.38;;
70183;SDS011;57554;51.546;6.776;2023-06-22T06:12:48;21.48;;;15.85;;
70183;SDS011;57554;51.546;6.776;2023-06-22T06:15:13;20.83;;;15.43;;
70183;SDS011;57554;51.546;6.776;2023-06-22T06:17:46;23.30;;;15.90;;
70183;SDS011;57554;51.546;6.776;2023-06-22T06:20:15;22.30;;;14.95;;
70183;SDS011;57554;51.546;6.776;2023-06-22T06:22:45;18.85;;;13.27;;
70183;SDS011;57554;51.546;6.776;2023-06-22T06:25:11;25.55;;;14.95;;
70183;SDS011;57554;51.546;6.776;2023-06-22T06:27:41;22.33;;;15.68;;
70183;SDS011;57554;51.546;6.776;2023-06-22T06:30:07;22.92;;;13.75;;
70183;SDS011;57554;51.546;6.776;2023-06-22T06:32:33;21.17;;;14.15;;
70183;SDS011;57554;51.546;6.776;2023-06-22T06:34:59;20.23;;;14.25;;
70183;SDS011;57554;51.546;6.776;2023-06-22T06:37:24;22.65;;;15.95;;
70183;SDS011;57554;51.546;6.776;2023-06-22T06:39:50;24.45;;;16.67;;
70183;SDS011;57554;51.546;6.776;2023-06-22T06:42:15;20.15;;;15.40;;
70183;SDS011;57554;51.546;6.776;2023-06-22T06:44:41;23.08;;;16.45;;
70183;SDS011;57554;51.546;6.776;2023-06-22T06:47:07;22.63;;;16.40;;
70183;SDS011;57554;51.546;6.776;2023-06-22T06:49:33;21.45;;;14.77;;
70183;SDS011;57554;51.546;6.776;2023-06-22T06:51:58;19.33;;;13.95;;
70183;SDS011;57554;51.546;6.776;2023-06-22T06:54:24;25.30;;;17.17;;
70183;SDS011;57554;51.546;6.776;2023-06-22T06:56:49;23.70;;;17.27;;
70183;SDS011;57554;51.546;6.776;2023-06-22T06:59:15;26.65;;;18.60;;
70183;SDS011;57554;51.546;6.776;2023-06-22T07:01:41;25.85;;;18.13;;
70183;SDS011;57554;51.546;6.776;2023-06-22T07:04:07;25.80;;;18.92;;
70183;SDS011;57554;51.546;6.776;2023-06-22T07:06:32;24.10;;;17.92;;
70183;SDS011;57554;51.546;6.776;2023-06-22T07:08:59;25.50;;;18.63;;
70183;SDS011;57554;51.546;6.776;2023-06-22T07:11:26;27.50;;;18.75;;
70183;SDS011;57554;51.546;6.776;2023-06-22T07:13:52;27.77;;;20.60;;
70183;SDS011;57554;51.546;6.776;2023-06-22T07:16:18;30.98;;;20.98;;
70183;SDS011;57554;51.546;6.776;2023-06-22T07:18:43;28.75;;;21.30;;
70183;SDS011;57554;51.546;6.776;2023-06-22T07:21:09;29.02;;;19.50;;
70183;SDS011;57554;51.546;6.776;2023-06-22T07:23:34;27.67;;;20.83;;
70183;SDS011;57554;51.546;6.776;2023-06-22T07:26:00;29.50;;;20.83;;
70183;SDS011;57554;51.546;6.776;2023-06-22T07:28:31;27.20;;;20.00;;
70183;SDS011;57554;51.546;6.776;2023-06-22T07:31:01;30.05;;;22.02;;
70183;SDS011;57554;51.546;6.776;2023-06-22T07:33:28;32.28;;;23.10;;
70183;SDS011;57554;51.546;6.776;2023-06-22T07:35:54;30.58;;;20.38;;
70183;SDS011;57554;51.546;6.776;2023-06-22T07:38:20;26.38;;;18.83;;
70183;SDS011;57554;51.546;6.776;2023-06-22T07:40:45;28.73;;;21.00;;
70183;SDS011;57554;51.546;6.776;2023-06-22T07:43:11;28.40;;;21.17;;
70183;SDS011;57554;51.546;6.776;2023-06-22T07:45:37;29.83;;;22.05;;
70183;SDS011;57554;51.546;6.776;2023-06-22T07:48:05;25.50;;;18.25;;
70183;SDS011;57554;51.546;6.776;2023-06-22T07:50:31;27.70;;;20.33;;
70183;SDS011;57554;51.546;6.776;2023-06-22T07:52:57;27.65;;;19.77;;
70183;SDS011;57554;51.546;6.776;2023-06-22T07:55:22;28.58;;;20.35;;
70183;SDS011;57554;51.546;6.776;2023-06-22T07:57:48;26.30;;;19.50;;
70183;SDS011;57554;51.546;6.776;2023-06-22T08:00:16;28.25;;;21.77;;
70183;SDS011;57554;51.546;6.776;2023-06-22T08:02:44;28.33;;;20.40;;
70183;SDS011;57554;51.546;6.776;2023-06-22T08:05:10;28.73;;;21.02;;
70183;SDS011;57554;51.546;6.776;2023-06-22T08:07:37;26.63;;;18.92;;
70183;SDS011;57554;51.546;6.776;2023-06-22T08:10:09;26.67;;;20.38;;
70183;SDS011;57554;51.546;6.776;2023-06-22T08:12:36;25.92;;;19.20;;
70183;SDS011;57554;51.546;6.776;2023-06-22T08:15:01;28.23;;;20.38;;
70183;SDS011;57554;51.546;6.776;2023-06-22T08:17:27;24.60;;;19.33;;
